sensor_id;sensor_type;location;lat;lon;timestamp;temperature;humidity
35277;DHT22;21401;50.878;8.050;2022-11-15T00:00:25;11.00;99.90
35277;DHT22;21401;50.878;8.050;2022-11-15T00:02:54;11.10;99.90
35277;DHT22;21401;50.878;8.050;2022-11-15T00:05:20;11.00;99.90
35277;DHT22;21401;50.878;8.050;2022-11-15T00:07:48;11.10;99.90
35277;DHT22;21401;50.878;8.050;2022-11-15T00:10:14;11.10;99.90
35277;DHT22;21401;50.878;8.050;2022-11-15T00:12:40;11.10;99.90
35277;DHT22;21401;50.878;8.050;2022-11-15T00:15:09;11.00;99.90
35277;DHT22;21401;50.878;8.050;2022-11-15T00:17:34;10.90;99.90
35277;DHT22;21401;50.878;8.050;2022-11-15T00:20:00;10.90;99.90
35277;DHT22;21401;50.878;8.050;2022-11-15T00:22:32;10.90;99.90
35277;DHT22;21401;50.878;8.050;2022-11-15T00:24:58;11.00;99.90
35277;DHT22;21401;50.878;8.050;2022-11-15T00:27:23;11.00;99.90
35277;DHT22;21401;50.878;8.050;2022-11-15T00:29:51;11.00;99.90
35277;DHT22;21401;50.878;8.050;2022-11-15T00:32:19;11.00;99.90
35277;DHT22;21401;50.878;8.050;2022-11-15T00:34:47;11.10;99.90
35277;DHT22;21401;50.878;8.050;2022-11-15T00:37:13;11.00;99.90
35277;DHT22;21401;50.878;8.050;2022-11-15T00:39:40;11.00;99.90
35277;DHT22;21401;50.878;8.050;2022-11-15T00:42:06;11.00;99.90
35277;DHT22;21401;50.878;8.050;2022-11-15T00:44:41;11.00;99.90
35277;DHT22;21401;50.878;8.050;2022-11-15T00:47:10;11.10;99.90
35277;DHT22;21401;50.878;8.050;2022-11-15T00:49:36;11.10;99.90
35277;DHT22;21401;50.878;8.050;2022-11-15T00:52:02;11.10;99.90
35277;DHT22;21401;50.878;8.050;2022-11-15T00:54:27;11.20;99.90
35277;DHT22;21401;50.878;8.050;2022-11-15T00:56:53;11.20;99.90
35277;DHT22;21401;50.878;8.050;2022-11-15T00:59:19;11.20;99.90
35277;DHT22;21401;50.878;8.050;2022-11-15T01:01:45;11.20;99.90
35277;DHT22;21401;50.878;8.050;2022-11-15T01:04:11;11.20;99.90
35277;DHT22;21401;50.878;8.050;2022-11-15T01:06:36;11.20;99.90
35277;DHT22;21401;50.878;8.050;2022-11-15T01:09:02;11.20;99.90
35277;DHT22;21401;50.878;8.050;2022-11-15T01:11:28;11.20;99.90
35277;DHT22;21401;50.878;8.050;2022-11-15T01:13:55;11.10;99.90
35277;DHT22;21401;50.878;8.050;2022-11-15T01:16:21;11.20;99.90
35277;DHT22;21401;50.878;8.050;2022-11-15T01:18:51;11.20;99.90
35277;DHT22;21401;50.878;8.050;2022-11-15T01:21:18;11.20;99.90
35277;DHT22;21401;50.878;8.050;2022-11-15T01:23:46;11.10;99.90
35277;DHT22;21401;50.878;8.050;2022-11-15T01:26:14;11.10;99.90
35277;DHT22;21401;50.878;8.050;2022-11-15T01:28:41;11.00;99.90
35277;DHT22;21401;50.878;8.050;2022-11-15T01:31:15;11.00;99.90
35277;DHT22;21401;50.878;8.050;2022-11-15T01:33:41;11.00;99.90
35277;DHT22;21401;50.878;8.050;2022-11-15T01:36:10;11.00;99.90
35277;DHT22;21401;50.878;8.050;2022-11-15T01:38:36;11.00;99.90
35277;DHT22;21401;50.878;8.050;2022-11-15T01:41:02;10.90;99.90
35277;DHT22;21401;50.878;8.050;2022-11-15T01:43:36;10.90;99.90
35277;DHT22;21401;50.878;8.050;2022-11-15T01:46:08;11.00;99.90
35277;DHT22;21401;50.878;8.050;2022-11-15T01:48:41;10.90;99.90
35277;DHT22;21401;50.878;8.050;2022-11-15T01:51:09;10.90;99.90
35277;DHT22;21401;50.878;8.050;2022-11-15T01:53:38;10.90;99.90
35277;DHT22;21401;50.878;8.050;2022-11-15T01:56:08;10.90;99.90
35277;DHT22;21401;50.878;8.050;2022-11-15T01:58:37;10.90;99.90
35277;DHT22;21401;50.878;8.050;2022-11-15T02:01:03;11.00;99.90
35277;DHT22;21401;50.878;8.050;2022-11-15T02:03:45;10.90;99.90
35277;DHT22;21401;50.878;8.050;2022-11-15T02:06:14;10.90;99.90
35277;DHT22;21401;50.878;8.050;2022-11-15T02:08:40;10.80;99.90
35277;DHT22;21401;50.878;8.050;2022-11-15T02:11:09;10.80;99.90
35277;DHT22;21401;50.878;8.050;2022-11-15T02:13:38;10.60;99.90
35277;DHT22;21401;50.878;8.050;2022-11-15T02:22:10;10.40;99.90
35277;DHT22;21401;50.878;8.050;2022-11-15T02:34:05;10.20;99.90
35277;DHT22;21401;50.878;8.050;2022-11-15T02:36:00;10.20;99.90
35277;DHT22;21401;50.878;8.050;2022-11-15T02:41:30;10.10;99.90
35277;DHT22;21401;50.878;8.050;2022-11-15T02:44:02;10.10;99.90
35277;DHT22;21401;50.878;8.050;2022-11-15T02:46:36;10.10;99.90
35277;DHT22;21401;50.878;8.050;2022-11-15T02:49:24;10.10;99.90
35277;DHT22;21401;50.878;8.050;2022-11-15T02:51:54;10.10;99.90
35277;DHT22;21401;50.878;8.050;2022-11-15T02:54:22;10.10;99.90
35277;DHT22;21401;50.878;8.050;2022-11-15T02:56:52;10.10;99.90
35277;DHT22;21401;50.878;8.050;2022-11-15T03:05:02;10.10;99.90
35277;DHT22;21401;50.878;8.050;2022-11-15T03:16:20;10.20;99.90
35277;DHT22;21401;50.878;8.050;2022-11-15T03:18:55;10.20;99.90
35277;DHT22;21401;50.878;8.050;2022-11-15T03:21:24;10.30;99.90
35277;DHT22;21401;50.878;8.050;2022-11-15T03:23:51;10.40;99.90
35277;DHT22;21401;50.878;8.050;2022-11-15T03:26:19;10.40;99.90
35277;DHT22;21401;50.878;8.050;2022-11-15T03:28:56;10.40;99.90
35277;DHT22;21401;50.878;8.050;2022-11-15T03:31:32;10.40;99.90
35277;DHT22;21401;50.878;8.050;2022-11-15T03:34:27;10.50;99.90
35277;DHT22;21401;50.878;8.050;2022-11-15T03:36:53;10.60;99.90
35277;DHT22;21401;50.878;8.050;2022-11-15T03:39:20;10.60;99.90
35277;DHT22;21401;50.878;8.050;2022-11-15T03:42:07;10.70;99.90
35277;DHT22;21401;50.878;8.050;2022-11-15T03:44:56;10.60;99.90
35277;DHT22;21401;50.878;8.050;2022-11-15T03:47:31;10.60;99.90
35277;DHT22;21401;50.878;8.050;2022-11-15T03:50:22;10.70;99.90
35277;DHT22;21401;50.878;8.050;2022-11-15T03:52:51;10.70;99.90
35277;DHT22;21401;50.878;8.050;2022-11-15T03:55:20;10.70;99.90
35277;DHT22;21401;50.878;8.050;2022-11-15T03:57:50;10.70;99.90
35277;DHT22;21401;50.878;8.050;2022-11-15T04:00:17;10.70;99.90
35277;DHT22;21401;50.878;8.050;2022-11-15T04:02:43;10.60;99.90
35277;DHT22;21401;50.878;8.050;2022-11-15T04:05:12;10.70;99.90
35277;DHT22;21401;50.878;8.050;2022-11-15T04:07:37;10.70;99.90
35277;DHT22;21401;50.878;8.050;2022-11-15T04:10:03;10.60;99.90
35277;DHT22;21401;50.878;8.050;2022-11-15T04:12:34;10.60;99.90
35277;DHT22;21401;50.878;8.050;2022-11-15T04:15:08;10.50;99.90
35277;DHT22;21401;50.878;8.050;2022-11-15T04:17:41;10.50;99.90
35277;DHT22;21401;50.878;8.050;2022-11-15T04:20:18;10.50;99.90
35277;DHT22;21401;50.878;8.050;2022-11-15T04:23:05;10.50;99.90
35277;DHT22;21401;50.878;8.050;2022-11-15T04:25:52;10.60;99.90
35277;DHT22;21401;50.878;8.050;2022-11-15T04:28:20;10.50;99.90
35277;DHT22;21401;50.878;8.050;2022-11-15T04:30:46;10.60;99.90
35277;DHT22;21401;50.878;8.050;2022-11-15T04:33:11;10.60;99.90
35277;DHT22;21401;50.878;8.050;2022-11-15T04:35:37;10.60;99.90
35277;DHT22;21401;50.878;8.050;2022-11-15T04:38:05;10.70;99.90
35277;DHT22;21401;50.878;8.050;2022-11-15T04:40:36;10.70;99.90
35277;DHT22;21401;50.878;8.050;2022-11-15T04:43:02;10.60;99.90
35277;DHT22;21401;50.878;8.050;2022-11-15T04:45:28;10.60;99.90
35277;DHT22;21401;50.878;8.050;2022-11-15T04:47:54;10.60;99.90
35277;DHT22;21401;50.878;8.050;2022-11-15T04:50:19;10.60;99.90
35277;DHT22;21401;50.878;8.050;2022-11-15T04:52:53;10.60;99.90
35277;DHT22;21401;50.878;8.050;2022-11-15T04:55:18;10.60;99.90
35277;DHT22;21401;50.878;8.050;2022-11-15T04:57:44;10.60;99.90
35277;DHT22;21401;50.878;8.050;2022-11-15T05:00:12;10.60;99.90
35277;DHT22;21401;50.878;8.050;2022-11-15T05:02:38;10.60;99.90
35277;DHT22;21401;50.878;8.050;2022-11-15T05:05:25;10.60;99.90
35277;DHT22;21401;50.878;8.050;2022-11-15T05:07:51;10.60;99.90
35277;DHT22;21401;50.878;8.050;2022-11-15T05:10:16;10.60;99.90
35277;DHT22;21401;50.878;8.050;2022-11-15T05:12:46;10.70;99.90
35277;DHT22;21401;50.878;8.050;2022-11-15T05:15:12;10.60;99.90
35277;DHT22;21401;50.878;8.050;2022-11-15T05:17:39;10.60;99.90
35277;DHT22;21401;50.878;8.050;2022-11-15T05:20:05;10.60;99.90
35277;DHT22;21401;50.878;8.050;2022-11-15T05:22:31;10.60;99.90
35277;DHT22;21401;50.878;8.050;2022-11-15T05:24:56;10.60;99.90
35277;DHT22;21401;50.878;8.050;2022-11-15T05:27:24;10.60;99.90
35277;DHT22;21401;50.878;8.050;2022-11-15T05:29:50;10.60;99.90
35277;DHT22;21401;50.878;8.050;2022-11-15T05:32:16;10.60;99.90
35277;DHT22;21401;50.878;8.050;2022-11-15T05:34:43;10.60;99.90
35277;DHT22;21401;50.878;8.050;2022-11-15T05:37:08;10.60;99.90
35277;DHT22;21401;50.878;8.050;2022-11-15T05:39:34;10.60;99.90
35277;DHT22;21401;50.878;8.050;2022-11-15T05:44:33;10.70;99.90
35277;DHT22;21401;50.878;8.050;2022-11-15T05:46:59;10.70;99.90
35277;DHT22;21401;50.878;8.050;2022-11-15T05:49:31;10.70;99.90
35277;DHT22;21401;50.878;8.050;2022-11-15T05:51:57;10.80;99.90
35277;DHT22;21401;50.878;8.050;2022-11-15T05:54:23;10.80;99.90
35277;DHT22;21401;50.878;8.050;2022-11-15T05:56:52;10.80;99.90
35277;DHT22;21401;50.878;8.050;2022-11-15T05:59:19;10.80;99.90
35277;DHT22;21401;50.878;8.050;2022-11-15T06:01:45;10.80;99.90
35277;DHT22;21401;50.878;8.050;2022-11-15T06:04:10;10.70;99.90
35277;DHT22;21401;50.878;8.050;2022-11-15T06:06:36;10.70;99.90
35277;DHT22;21401;50.878;8.050;2022-11-15T06:09:02;10.70;99.90
35277;DHT22;21401;50.878;8.050;2022-11-15T06:11:27;10.70;99.90
35277;DHT22;21401;50.878;8.050;2022-11-15T06:13:53;10.60;99.90
35277;DHT22;21401;50.878;8.050;2022-11-15T06:16:22;10.60;99.90
35277;DHT22;21401;50.878;8.050;2022-11-15T06:18:50;10.50;99.90
35277;DHT22;21401;50.878;8.050;2022-11-15T06:21:17;10.50;99.90
35277;DHT22;21401;50.878;8.050;2022-11-15T06:23:43;10.40;99.90
35277;DHT22;21401;50.878;8.050;2022-11-15T06:26:08;10.40;99.90
35277;DHT22;21401;50.878;8.050;2022-11-15T06:28:34;10.40;99.90
35277;DHT22;21401;50.878;8.050;2022-11-15T06:31:09;10.40;99.90
35277;DHT22;21401;50.878;8.050;2022-11-15T06:33:36;10.40;99.90
35277;DHT22;21401;50.878;8.050;2022-11-15T06:36:11;10.40;99.90
35277;DHT22;21401;50.878;8.050;2022-11-15T06:38:39;10.40;99.90
35277;DHT22;21401;50.878;8.050;2022-11-15T06:41:09;10.40;99.90
35277;DHT22;21401;50.878;8.050;2022-11-15T06:43:35;10.30;99.90
35277;DHT22;21401;50.878;8.050;2022-11-15T06:46:04;10.30;99.90
35277;DHT22;21401;50.878;8.050;2022-11-15T06:48:33;10.30;99.90
35277;DHT22;21401;50.878;8.050;2022-11-15T06:51:01;10.30;99.90
35277;DHT22;21401;50.878;8.050;2022-11-15T06:53:27;10.20;99.90
35277;DHT22;21401;50.878;8.050;2022-11-15T06:55:53;10.20;99.90
35277;DHT22;21401;50.878;8.050;2022-11-15T06:58:20;10.20;99.90
35277;DHT22;21401;50.878;8.050;2022-11-15T07:00:46;10.20;99.90
35277;DHT22;21401;50.878;8.050;2022-11-15T07:03:16;10.20;99.90
35277;DHT22;21401;50.878;8.050;2022-11-15T07:05:51;10.20;99.90
35277;DHT22;21401;50.878;8.050;2022-11-15T07:08:16;10.10;99.90
35277;DHT22;21401;50.878;8.050;2022-11-15T07:10:42;10.10;99.90
35277;DHT22;21401;50.878;8.050;2022-11-15T07:13:07;10.10;99.90
35277;DHT22;21401;50.878;8.050;2022-11-15T07:15:33;10.10;99.90
35277;DHT22;21401;50.878;8.050;2022-11-15T07:18:01;10.20;99.90
35277;DHT22;21401;50.878;8.050;2022-11-15T07:20:29;10.30;99.90
35277;DHT22;21401;50.878;8.050;2022-11-15T07:23:05;10.30;99.90
35277;DHT22;21401;50.878;8.050;2022-11-15T07:25:36;10.30;99.90
35277;DHT22;21401;50.878;8.050;2022-11-15T07:28:02;10.40;99.90
35277;DHT22;21401;50.878;8.050;2022-11-15T07:30:49;10.40;99.90
35277;DHT22;21401;50.878;8.050;2022-11-15T07:33:14;10.40;99.90
35277;DHT22;21401;50.878;8.050;2022-11-15T07:35:40;10.40;99.90
35277;DHT22;21401;50.878;8.050;2022-11-15T07:38:06;10.50;99.90
35277;DHT22;21401;50.878;8.050;2022-11-15T07:40:31;10.50;99.90
35277;DHT22;21401;50.878;8.050;2022-11-15T07:43:06;10.60;99.90
35277;DHT22;21401;50.878;8.050;2022-11-15T07:45:32;10.60;99.90
35277;DHT22;21401;50.878;8.050;2022-11-15T07:48:01;10.50;99.90
35277;DHT22;21401;50.878;8.050;2022-11-15T07:50:29;10.60;99.90
35277;DHT22;21401;50.878;8.050;2022-11-15T07:53:24;10.60;99.90
35277;DHT22;21401;50.878;8.050;2022-11-15T07:55:50;10.60;99.90
35277;DHT22;21401;50.878;8.050;2022-11-15T07:58:15;10.60;99.90
35277;DHT22;21401;50.878;8.050;2022-11-15T08:00:41;10.70;99.90
35277;DHT22;21401;50.878;8.050;2022-11-15T08:03:09;10.70;99.90
35277;DHT22;21401;50.878;8.050;2022-11-15T08:05:36;10.70;99.90
35277;DHT22;21401;50.878;8.050;2022-11-15T08:08:02;10.70;99.90
35277;DHT22;21401;50.878;8.050;2022-11-15T08:10:30;10.70;99.90
35277;DHT22;21401;50.878;8.050;2022-11-15T08:13:00;10.70;99.90
35277;DHT22;21401;50.878;8.050;2022-11-15T08:15:26;10.70;99.90
35277;DHT22;21401;50.878;8.050;2022-11-15T08:18:01;10.80;99.90
35277;DHT22;21401;50.878;8.050;2022-11-15T08:20:28;10.70;99.90
35277;DHT22;21401;50.878;8.050;2022-11-15T08:23:01;10.70;99.90
35277;DHT22;21401;50.878;8.050;2022-11-15T08:25:29;10.70;99.90
35277;DHT22;21401;50.878;8.050;2022-11-15T08:28:02;10.70;99.90
35277;DHT22;21401;50.878;8.050;2022-11-15T08:30:28;10.80;99.90
35277;DHT22;21401;50.878;8.050;2022-11-15T08:32:57;10.90;99.90
35277;DHT22;21401;50.878;8.050;2022-11-15T08:35:23;11.00;99.90
35277;DHT22;21401;50.878;8.050;2022-11-15T08:37:49;11.00;99.90
35277;DHT22;21401;50.878;8.050;2022-11-15T08:40:18;11.10;99.90
35277;DHT22;21401;50.878;8.050;2022-11-15T08:42:46;11.40;99.90
35277;DHT22;21401;50.878;8.050;2022-11-15T08:45:12;11.50;99.90
35277;DHT22;21401;50.878;8.050;2022-11-15T08:47:37;11.80;99.90
35277;DHT22;21401;50.878;8.050;2022-11-15T08:50:03;12.20;99.90
35277;DHT22;21401;50.878;8.050;2022-11-15T08:52:29;12.30;99.90
35277;DHT22;21401;50.878;8.050;2022-11-15T08:54:54;12.10;99.90
35277;DHT22;21401;50.878;8.050;2022-11-15T08:57:20;12.30;99.90
35277;DHT22;21401;50.878;8.050;2022-11-15T08:59:46;12.50;99.90
35277;DHT22;21401;50.878;8.050;2022-11-15T09:02:13;12.30;99.90
35277;DHT22;21401;50.878;8.050;2022-11-15T09:04:44;12.40;99.90
35277;DHT22;21401;50.878;8.050;2022-11-15T09:07:10;12.30;99.90
35277;DHT22;21401;50.878;8.050;2022-11-15T09:09:37;12.10;99.90
35277;DHT22;21401;50.878;8.050;2022-11-15T09:12:04;12.00;99.90
35277;DHT22;21401;50.878;8.050;2022-11-15T09:14:32;11.90;99.90
35277;DHT22;21401;50.878;8.050;2022-11-15T09:17:01;11.80;99.90
35277;DHT22;21401;50.878;8.050;2022-11-15T09:19:26;11.80;99.90
35277;DHT22;21401;50.878;8.050;2022-11-15T09:21:52;11.80;99.90
35277;DHT22;21401;50.878;8.050;2022-11-15T09:24:18;11.90;99.90
35277;DHT22;21401;50.878;8.050;2022-11-15T09:26:44;11.80;99.90
35277;DHT22;21401;50.878;8.050;2022-11-15T09:29:09;11.80;99.90
35277;DHT22;21401;50.878;8.050;2022-11-15T09:31:37;11.70;99.90
35277;DHT22;21401;50.878;8.050;2022-11-15T09:34:05;11.70;99.90
35277;DHT22;21401;50.878;8.050;2022-11-15T09:36:31;11.70;99.90
35277;DHT22;21401;50.878;8.050;2022-11-15T09:38:58;11.70;99.90
35277;DHT22;21401;50.878;8.050;2022-11-15T09:44:09;11.80;99.90
35277;DHT22;21401;50.878;8.050;2022-11-15T09:46:51;11.80;99.90
35277;DHT22;21401;50.878;8.050;2022-11-15T09:49:23;12.10;99.90
35277;DHT22;21401;50.878;8.050;2022-11-15T09:51:51;12.20;99.90
35277;DHT22;21401;50.878;8.050;2022-11-15T09:54:37;12.30;99.90
35277;DHT22;21401;50.878;8.050;2022-11-15T10:05:22;12.20;99.90
35277;DHT22;21401;50.878;8.050;2022-11-15T10:10:25;12.80;99.90
35277;DHT22;21401;50.878;8.050;2022-11-15T10:12:53;12.80;99.90
35277;DHT22;21401;50.878;8.050;2022-11-15T10:15:21;13.30;99.90
35277;DHT22;21401;50.878;8.050;2022-11-15T10:20:30;14.10;99.90
35277;DHT22;21401;50.878;8.050;2022-11-15T10:22:59;14.60;99.90
35277;DHT22;21401;50.878;8.050;2022-11-15T10:25:32;14.60;99.90
35277;DHT22;21401;50.878;8.050;2022-11-15T10:31:26;13.30;99.90
35277;DHT22;21401;50.878;8.050;2022-11-15T10:34:11;12.90;99.90
35277;DHT22;21401;50.878;8.050;2022-11-15T10:36:38;12.70;99.90
35277;DHT22;21401;50.878;8.050;2022-11-15T10:39:10;12.70;99.90
35277;DHT22;21401;50.878;8.050;2022-11-15T10:41:39;12.60;99.90
35277;DHT22;21401;50.878;8.050;2022-11-15T10:46:34;12.70;99.90
35277;DHT22;21401;50.878;8.050;2022-11-15T10:49:26;12.70;99.90
35277;DHT22;21401;50.878;8.050;2022-11-15T10:52:18;12.60;99.90
35277;DHT22;21401;50.878;8.050;2022-11-15T10:55:01;12.70;99.90
35277;DHT22;21401;50.878;8.050;2022-11-15T10:57:32;12.70;99.90
35277;DHT22;21401;50.878;8.050;2022-11-15T11:00:25;12.70;99.90
35277;DHT22;21401;50.878;8.050;2022-11-15T11:02:59;12.60;99.90
35277;DHT22;21401;50.878;8.050;2022-11-15T11:05:30;12.60;99.90
35277;DHT22;21401;50.878;8.050;2022-11-15T11:10:29;12.70;99.90
35277;DHT22;21401;50.878;8.050;2022-11-15T11:12:54;12.70;99.90
35277;DHT22;21401;50.878;8.050;2022-11-15T11:15:22;12.70;99.90
35277;DHT22;21401;50.878;8.050;2022-11-15T11:21:54;12.70;99.90
35277;DHT22;21401;50.878;8.050;2022-11-15T11:30:14;12.80;99.90
35277;DHT22;21401;50.878;8.050;2022-11-15T11:37:53;12.80;99.90
35277;DHT22;21401;50.878;8.050;2022-11-15T11:43:17;12.80;99.90
35277;DHT22;21401;50.878;8.050;2022-11-15T11:49:15;13.00;99.90
35277;DHT22;21401;50.878;8.050;2022-11-15T11:55:02;13.10;99.90
35277;DHT22;21401;50.878;8.050;2022-11-15T12:00:25;13.20;99.90
35277;DHT22;21401;50.878;8.050;2022-11-15T12:03:05;13.40;99.90
35277;DHT22;21401;50.878;8.050;2022-11-15T12:05:44;13.50;99.90
35277;DHT22;21401;50.878;8.050;2022-11-15T12:08:35;13.80;99.90
35277;DHT22;21401;50.878;8.050;2022-11-15T12:14:00;13.60;99.90
35277;DHT22;21401;50.878;8.050;2022-11-15T12:16:29;13.60;99.90
35277;DHT22;21401;50.878;8.050;2022-11-15T12:18:59;14.10;99.90
35277;DHT22;21401;50.878;8.050;2022-11-15T12:24:02;13.80;99.90
35277;DHT22;21401;50.878;8.050;2022-11-15T12:26:34;13.70;99.90
35277;DHT22;21401;50.878;8.050;2022-11-15T12:29:15;13.50;99.90
35277;DHT22;21401;50.878;8.050;2022-11-15T12:31:44;13.50;99.90
35277;DHT22;21401;50.878;8.050;2022-11-15T12:36:46;13.50;99.90
35277;DHT22;21401;50.878;8.050;2022-11-15T12:39:13;13.40;99.90
35277;DHT22;21401;50.878;8.050;2022-11-15T12:41:44;13.40;99.90
35277;DHT22;21401;50.878;8.050;2022-11-15T13:02:26;13.50;99.90
35277;DHT22;21401;50.878;8.050;2022-11-15T13:04:54;13.50;99.90
35277;DHT22;21401;50.878;8.050;2022-11-15T13:10:32;13.50;99.90
35277;DHT22;21401;50.878;8.050;2022-11-15T13:13:04;13.40;99.90
35277;DHT22;21401;50.878;8.050;2022-11-15T13:18:38;13.40;99.90
35277;DHT22;21401;50.878;8.050;2022-11-15T13:21:21;13.30;99.90
35277;DHT22;21401;50.878;8.050;2022-11-15T13:24:14;13.20;99.90
35277;DHT22;21401;50.878;8.050;2022-11-15T13:26:41;13.20;99.90
35277;DHT22;21401;50.878;8.050;2022-11-15T13:29:25;13.10;99.90
35277;DHT22;21401;50.878;8.050;2022-11-15T13:31:51;13.10;99.90
35277;DHT22;21401;50.878;8.050;2022-11-15T13:34:28;13.10;99.90
35277;DHT22;21401;50.878;8.050;2022-11-15T13:36:54;13.10;99.90
35277;DHT22;21401;50.878;8.050;2022-11-15T13:41:53;13.10;99.90
35277;DHT22;21401;50.878;8.050;2022-11-15T13:44:21;13.10;99.90
35277;DHT22;21401;50.878;8.050;2022-11-15T13:46:47;13.10;99.90
35277;DHT22;21401;50.878;8.050;2022-11-15T13:49:12;13.10;99.90
35277;DHT22;21401;50.878;8.050;2022-11-15T13:56:42;13.10;99.90
35277;DHT22;21401;50.878;8.050;2022-11-15T13:59:10;13.00;99.90
35277;DHT22;21401;50.878;8.050;2022-11-15T14:01:41;13.00;99.90
35277;DHT22;21401;50.878;8.050;2022-11-15T14:04:12;13.00;99.90
35277;DHT22;21401;50.878;8.050;2022-11-15T14:06:45;13.00;99.90
35277;DHT22;21401;50.878;8.050;2022-11-15T14:09:28;12.90;99.90
35277;DHT22;21401;50.878;8.050;2022-11-15T14:11:56;12.90;99.90
35277;DHT22;21401;50.878;8.050;2022-11-15T14:14:27;12.90;99.90
35277;DHT22;21401;50.878;8.050;2022-11-15T14:16:55;12.80;99.90
35277;DHT22;21401;50.878;8.050;2022-11-15T14:22:11;12.80;99.90
35277;DHT22;21401;50.878;8.050;2022-11-15T14:24:37;12.70;99.90
35277;DHT22;21401;50.878;8.050;2022-11-15T14:27:25;12.70;99.90
35277;DHT22;21401;50.878;8.050;2022-11-15T14:29:51;12.70;99.90
35277;DHT22;21401;50.878;8.050;2022-11-15T14:32:20;12.70;99.90
35277;DHT22;21401;50.878;8.050;2022-11-15T14:34:46;12.60;99.90
35277;DHT22;21401;50.878;8.050;2022-11-15T14:37:22;12.60;99.90
35277;DHT22;21401;50.878;8.050;2022-11-15T14:39:49;12.60;99.90
35277;DHT22;21401;50.878;8.050;2022-11-15T14:42:15;12.50;99.90
35277;DHT22;21401;50.878;8.050;2022-11-15T14:44:41;12.50;99.90
35277;DHT22;21401;50.878;8.050;2022-11-15T14:47:06;12.50;99.90
35277;DHT22;21401;50.878;8.050;2022-11-15T14:49:32;12.40;99.90
35277;DHT22;21401;50.878;8.050;2022-11-15T14:51:58;12.40;99.90
35277;DHT22;21401;50.878;8.050;2022-11-15T14:54:23;12.40;99.90
35277;DHT22;21401;50.878;8.050;2022-11-15T14:56:49;12.40;99.90
35277;DHT22;21401;50.878;8.050;2022-11-15T14:59:14;12.40;99.90
35277;DHT22;21401;50.878;8.050;2022-11-15T15:01:40;12.30;99.90
35277;DHT22;21401;50.878;8.050;2022-11-15T15:04:06;12.30;99.90
35277;DHT22;21401;50.878;8.050;2022-11-15T15:06:31;12.30;99.90
35277;DHT22;21401;50.878;8.050;2022-11-15T15:08:57;12.30;99.90
35277;DHT22;21401;50.878;8.050;2022-11-15T15:11:24;12.30;99.90
35277;DHT22;21401;50.878;8.050;2022-11-15T15:13:52;12.20;99.90
35277;DHT22;21401;50.878;8.050;2022-11-15T15:16:18;12.20;99.90
35277;DHT22;21401;50.878;8.050;2022-11-15T15:18:47;12.20;99.90
35277;DHT22;21401;50.878;8.050;2022-11-15T15:21:27;12.20;99.90
35277;DHT22;21401;50.878;8.050;2022-11-15T15:23:53;12.20;99.90
35277;DHT22;21401;50.878;8.050;2022-11-15T15:26:20;12.10;99.90
35277;DHT22;21401;50.878;8.050;2022-11-15T15:28:48;12.30;99.90
35277;DHT22;21401;50.878;8.050;2022-11-15T15:31:17;12.20;99.90
35277;DHT22;21401;50.878;8.050;2022-11-15T15:33:43;12.10;99.90
35277;DHT22;21401;50.878;8.050;2022-11-15T15:36:14;12.30;99.90
35277;DHT22;21401;50.878;8.050;2022-11-15T15:38:42;12.10;99.90
35277;DHT22;21401;50.878;8.050;2022-11-15T15:41:16;12.10;99.90
35277;DHT22;21401;50.878;8.050;2022-11-15T15:43:42;12.00;99.90
35277;DHT22;21401;50.878;8.050;2022-11-15T15:46:11;12.00;99.90
35277;DHT22;21401;50.878;8.050;2022-11-15T15:48:39;12.10;99.90
35277;DHT22;21401;50.878;8.050;2022-11-15T15:51:07;12.00;99.90
35277;DHT22;21401;50.878;8.050;2022-11-15T15:53:33;12.00;99.90
35277;DHT22;21401;50.878;8.050;2022-11-15T15:55:59;11.90;99.90
35277;DHT22;21401;50.878;8.050;2022-11-15T15:58:25;11.90;99.90
35277;DHT22;21401;50.878;8.050;2022-11-15T16:00:50;11.80;99.90
35277;DHT22;21401;50.878;8.050;2022-11-15T16:03:16;11.80;99.90
35277;DHT22;21401;50.878;8.050;2022-11-15T16:05:42;11.80;99.90
35277;DHT22;21401;50.878;8.050;2022-11-15T16:08:21;11.80;99.90
35277;DHT22;21401;50.878;8.050;2022-11-15T16:10:48;11.70;99.90
35277;DHT22;21401;50.878;8.050;2022-11-15T16:13:13;11.60;99.90
35277;DHT22;21401;50.878;8.050;2022-11-15T16:15:39;11.60;99.90
35277;DHT22;21401;50.878;8.050;2022-11-15T16:18:06;11.60;99.90
35277;DHT22;21401;50.878;8.050;2022-11-15T16:20:37;11.60;99.90
35277;DHT22;21401;50.878;8.050;2022-11-15T16:23:09;11.50;99.90
35277;DHT22;21401;50.878;8.050;2022-11-15T16:30:45;11.40;99.90
35277;DHT22;21401;50.878;8.050;2022-11-15T16:33:10;11.40;99.90
35277;DHT22;21401;50.878;8.050;2022-11-15T16:35:38;11.40;99.90
35277;DHT22;21401;50.878;8.050;2022-11-15T16:38:04;11.40;99.90
35277;DHT22;21401;50.878;8.050;2022-11-15T16:40:33;11.40;99.90
35277;DHT22;21401;50.878;8.050;2022-11-15T16:43:00;11.40;99.90
35277;DHT22;21401;50.878;8.050;2022-11-15T16:45:28;11.40;99.90
35277;DHT22;21401;50.878;8.050;2022-11-15T16:47:54;11.30;99.90
35277;DHT22;21401;50.878;8.050;2022-11-15T16:50:26;11.30;99.90
35277;DHT22;21401;50.878;8.050;2022-11-15T16:52:56;11.30;99.90
35277;DHT22;21401;50.878;8.050;2022-11-15T16:55:24;11.30;99.90
35277;DHT22;21401;50.878;8.050;2022-11-15T16:57:50;11.30;99.90
35277;DHT22;21401;50.878;8.050;2022-11-15T17:00:19;11.30;99.90
35277;DHT22;21401;50.878;8.050;2022-11-15T17:02:48;11.20;99.90
35277;DHT22;21401;50.878;8.050;2022-11-15T17:05:16;11.30;99.90
35277;DHT22;21401;50.878;8.050;2022-11-15T17:07:42;11.20;99.90
35277;DHT22;21401;50.878;8.050;2022-11-15T17:10:09;11.20;99.90
35277;DHT22;21401;50.878;8.050;2022-11-15T17:12:35;11.20;99.90
35277;DHT22;21401;50.878;8.050;2022-11-15T17:15:02;11.20;99.90
35277;DHT22;21401;50.878;8.050;2022-11-15T17:17:29;11.20;99.90
35277;DHT22;21401;50.878;8.050;2022-11-15T17:19:54;11.20;99.90
35277;DHT22;21401;50.878;8.050;2022-11-15T17:22:20;11.20;99.90
35277;DHT22;21401;50.878;8.050;2022-11-15T17:24:46;11.20;99.90
35277;DHT22;21401;50.878;8.050;2022-11-15T17:27:14;11.20;99.90
35277;DHT22;21401;50.878;8.050;2022-11-15T17:29:40;11.20;99.90
35277;DHT22;21401;50.878;8.050;2022-11-15T17:32:06;11.20;99.90
35277;DHT22;21401;50.878;8.050;2022-11-15T17:34:32;11.20;99.90
35277;DHT22;21401;50.878;8.050;2022-11-15T17:36:58;11.20;99.90
35277;DHT22;21401;50.878;8.050;2022-11-15T17:39:23;11.20;99.90
35277;DHT22;21401;50.878;8.050;2022-11-15T17:41:51;11.20;99.90
35277;DHT22;21401;50.878;8.050;2022-11-15T17:44:17;11.20;99.90
35277;DHT22;21401;50.878;8.050;2022-11-15T17:46:50;11.20;99.90
35277;DHT22;21401;50.878;8.050;2022-11-15T17:49:19;11.20;99.90
35277;DHT22;21401;50.878;8.050;2022-11-15T17:58:21;11.20;99.90
35277;DHT22;21401;50.878;8.050;2022-11-15T18:00:47;11.20;99.90
35277;DHT22;21401;50.878;8.050;2022-11-15T18:03:14;11.20;99.90